createdAt,value
2023-05-18T00:04:12.603Z,30.60
2023-05-18T00:09:15.585Z,30.60
2023-05-18T00:14:18.534Z,30.56
2023-05-18T00:19:24.041Z,30.52
2023-05-18T00:24:27.346Z,30.57
2023-05-18T00:29:30.297Z,30.65
2023-05-18T00:34:34.504Z,30.65
2023-05-18T00:39:37.369Z,30.49
2023-05-18T00:44:40.460Z,30.67
2023-05-18T00:49:44.851Z,30.91
2023-05-18T00:54:47.768Z,30.68
2023-05-18T00:59:51.167Z,30.56
2023-05-18T01:04:55.384Z,30.73
2023-05-18T01:09:59.082Z,30.69
2023-05-18T01:15:06.495Z,30.64
2023-05-18T01:20:34.056Z,30.63
2023-05-18T01:25:48.684Z,30.51
2023-05-18T01:30:53.857Z,30.78
2023-05-18T01:35:56.807Z,30.61
2023-05-18T01:41:04.694Z,30.78
2023-05-18T01:46:14.862Z,30.78
2023-05-18T01:51:21.774Z,30.68
2023-05-18T01:56:25.175Z,30.72
2023-05-18T02:01:29.538Z,30.79
2023-05-18T02:06:33.475Z,30.63
2023-05-18T02:11:36.405Z,30.68
2023-05-18T02:16:40.778Z,30.91
2023-05-18T02:21:44.397Z,30.84
2023-05-18T02:26:47.254Z,30.73
2023-05-18T02:31:51.662Z,30.76
2023-05-18T02:36:57.772Z,30.77
2023-05-18T02:42:01.002Z,30.72
2023-05-18T02:47:06.337Z,30.84
2023-05-18T02:52:09.292Z,30.84
2023-05-18T02:57:13.861Z,30.78
2023-05-18T03:02:18.190Z,30.71
2023-05-18T03:07:21.567Z,30.75
2023-05-18T03:12:27.613Z,30.74
2023-05-18T03:17:31.909Z,30.79
2023-05-18T03:22:34.814Z,30.78
2023-05-18T03:27:37.912Z,30.67
2023-05-18T03:32:42.174Z,30.66
2023-05-18T03:37:45.065Z,30.79
2023-05-18T03:42:48.048Z,30.85
2023-05-18T03:47:52.759Z,30.73
2023-05-18T03:52:55.721Z,30.82
2023-05-18T03:57:59.210Z,30.92
2023-05-18T04:03:04.883Z,30.73
2023-05-18T04:08:08.817Z,30.85
2023-05-18T04:13:11.883Z,30.82
2023-05-18T04:18:16.082Z,30.54
2023-05-18T04:23:19.979Z,30.83
2023-05-18T04:28:22.835Z,30.86
2023-05-18T04:33:27.073Z,30.80
2023-05-18T04:38:29.921Z,30.71
2023-05-18T04:43:32.758Z,30.73
2023-05-18T04:48:37.572Z,30.67
2023-05-18T04:53:41.645Z,30.75
2023-05-18T04:58:46.122Z,30.69
2023-05-18T05:03:51.737Z,30.86
2023-05-18T05:08:54.729Z,30.75
2023-05-18T05:13:57.645Z,30.67
2023-05-18T05:19:01.934Z,30.74
2023-05-18T05:24:06.052Z,30.74
2023-05-18T05:29:08.970Z,30.83
2023-05-18T05:34:13.546Z,30.76
2023-05-18T05:39:16.692Z,30.53
2023-05-18T05:44:19.530Z,30.66
2023-05-18T05:49:23.749Z,30.61
2023-05-18T05:54:26.653Z,30.67
2023-05-18T05:59:29.642Z,30.71
2023-05-18T06:04:33.913Z,30.59
2023-05-18T06:09:36.873Z,30.58
2023-05-18T06:14:39.731Z,30.50
2023-05-18T06:19:43.937Z,30.52
2023-05-18T06:24:47.244Z,30.52
2023-05-18T06:29:50.107Z,30.56
2023-05-18T06:34:54.284Z,30.54
2023-05-18T06:39:57.217Z,30.57
2023-05-18T06:45:00.219Z,30.46
2023-05-18T06:50:07.827Z,30.52
2023-05-18T06:55:11.115Z,30.45
2023-05-18T07:00:14.691Z,30.40
2023-05-18T07:05:19.144Z,30.49
2023-05-18T07:10:22.685Z,30.39
2023-05-18T07:15:26.602Z,30.55
2023-05-18T07:20:30.823Z,30.44
2023-05-18T07:25:33.856Z,30.37
2023-05-18T07:30:36.918Z,30.37
2023-05-18T07:35:41.145Z,30.58
2023-05-18T07:40:43.989Z,30.45
2023-05-18T07:45:46.871Z,30.55
2023-05-18T07:50:51.608Z,30.46
2023-05-18T07:55:54.423Z,30.49
2023-05-18T08:00:58.149Z,30.54
2023-05-18T08:06:02.972Z,30.48
2023-05-18T08:11:06.483Z,30.28
2023-05-18T08:16:12.367Z,30.33
2023-05-18T08:21:18.014Z,30.48
2023-05-18T08:26:22.009Z,30.25
2023-05-18T08:31:24.886Z,30.33
2023-05-18T08:36:29.072Z,30.33
2023-05-18T08:41:37.293Z,30.11
2023-05-18T08:46:42.634Z,30.20
2023-05-18T08:51:49.758Z,30.18
2023-05-18T08:56:53.948Z,30.14
2023-05-18T09:01:56.930Z,30.11
2023-05-18T09:07:02.657Z,30.26
2023-05-18T09:12:06.201Z,30.12
2023-05-18T09:17:09.109Z,30.11
2023-05-18T09:22:13.382Z,30.10
2023-05-18T09:27:16.292Z,30.24
2023-05-18T09:32:19.202Z,30.16
2023-05-18T09:37:23.857Z,30.17
2023-05-18T09:42:28.560Z,30.23
2023-05-18T09:47:31.444Z,30.25
2023-05-18T09:52:42.026Z,30.38
2023-05-18T09:57:46.287Z,30.15
2023-05-18T10:02:52.429Z,30.36
2023-05-18T10:07:57.507Z,30.39
2023-05-18T10:13:00.418Z,30.24
2023-05-18T10:18:04.310Z,30.63
2023-05-18T10:23:09.865Z,30.58
2023-05-18T10:28:13.450Z,30.49
2023-05-18T10:33:28.446Z,30.63
2023-05-18T10:38:34.510Z,30.62
2023-05-18T10:43:37.594Z,30.52
2023-05-18T10:48:41.260Z,30.28
2023-05-18T10:53:47.703Z,30.34
2023-05-18T10:58:50.610Z,30.36
2023-05-18T11:03:53.491Z,30.15
2023-05-18T11:08:57.821Z,30.14
2023-05-18T11:14:02.418Z,30.35
2023-05-18T11:19:11.292Z,30.25
2023-05-18T11:24:16.966Z,30.22
2023-05-18T11:29:24.865Z,30.11
2023-05-18T11:34:47.683Z,30.53
2023-05-18T11:40:03.525Z,30.55
2023-05-18T11:45:11.076Z,30.45
2023-05-18T11:50:14.037Z,30.41
2023-05-18T11:55:20.165Z,30.71
2023-05-18T12:00:25.226Z,30.79
2023-05-18T12:05:31.388Z,30.75
2023-05-18T12:10:37.300Z,30.66
2023-05-18T12:15:41.176Z,30.92
2023-05-18T12:20:45.686Z,30.67
2023-05-18T12:25:50.790Z,30.84
2023-05-18T12:30:57.603Z,30.85
2023-05-18T12:36:00.520Z,30.85
2023-05-18T12:41:04.795Z,30.85
2023-05-18T12:46:07.798Z,30.95
2023-05-18T12:51:19.067Z,30.99
2023-05-18T12:56:25.248Z,31.05
2023-05-18T13:01:28.356Z,31.17
2023-05-18T13:06:31.501Z,31.29
2023-05-18T13:11:35.771Z,31.28
2023-05-18T13:16:40.346Z,31.26
2023-05-18T13:21:43.489Z,31.11
2023-05-18T13:26:48.289Z,31.33
2023-05-18T13:31:51.497Z,31.24
2023-05-18T13:36:54.351Z,31.35
2023-05-18T13:41:59.644Z,31.19
2023-05-18T13:47:02.513Z,31.48
2023-05-18T13:52:06.067Z,31.36
2023-05-18T13:57:10.272Z,31.36
2023-05-18T14:02:13.179Z,31.29
2023-05-18T14:07:16.164Z,31.28
2023-05-18T14:12:20.550Z,31.31
2023-05-18T14:17:23.486Z,31.25
2023-05-18T14:22:27.419Z,31.26
2023-05-18T14:27:31.911Z,31.37
2023-05-18T14:32:36.415Z,31.31
2023-05-18T14:37:39.558Z,31.17
2023-05-18T14:42:44.174Z,31.53
2023-05-18T14:47:47.224Z,31.22
2023-05-18T14:52:50.095Z,31.47
2023-05-18T14:57:54.324Z,31.25
2023-05-18T15:02:57.348Z,31.55
2023-05-18T15:08:00.312Z,31.44
2023-05-18T15:13:04.804Z,31.57
2023-05-18T15:18:07.754Z,31.65
2023-05-18T15:23:10.880Z,31.64
2023-05-18T15:28:15.311Z,31.60
2023-05-18T15:33:18.194Z,31.58
2023-05-18T15:38:21.085Z,31.70
2023-05-18T15:43:26.168Z,31.69
2023-05-18T15:48:29.642Z,31.74
2023-05-18T15:53:32.486Z,31.80
2023-05-18T15:58:36.777Z,31.83
2023-05-18T16:03:39.814Z,31.86
2023-05-18T16:08:45.746Z,31.77
2023-05-18T16:13:50.278Z,31.80
2023-05-18T16:18:53.505Z,31.91
2023-05-18T16:23:56.396Z,31.94
2023-05-18T16:29:00.965Z,32.02
2023-05-18T16:34:04.497Z,31.92
2023-05-18T16:39:07.952Z,31.93
2023-05-18T16:44:12.163Z,31.85
2023-05-18T16:49:15.013Z,31.75
2023-05-18T16:54:17.917Z,31.62
2023-05-18T16:59:22.811Z,31.57
2023-05-18T17:04:25.713Z,31.51
2023-05-18T17:09:28.571Z,31.77
2023-05-18T17:14:32.782Z,31.65
2023-05-18T17:19:36.261Z,31.64
2023-05-18T17:24:39.157Z,31.66
2023-05-18T17:29:43.367Z,31.82
2023-05-18T17:34:46.426Z,31.87
2023-05-18T17:39:49.299Z,31.79
2023-05-18T17:44:53.526Z,31.98
2023-05-18T17:49:56.432Z,32.05
2023-05-18T17:54:59.407Z,31.86
2023-05-18T18:00:06.148Z,32.11
2023-05-18T18:05:09.908Z,32.08
2023-05-18T18:10:12.798Z,32.13
2023-05-18T18:15:17.300Z,32.17
2023-05-18T18:20:20.292Z,32.24
2023-05-18T18:25:23.238Z,32.24
2023-05-18T18:30:28.282Z,32.15
2023-05-18T18:35:31.283Z,32.29
2023-05-18T18:40:34.793Z,32.22
2023-05-18T18:45:40.233Z,32.28
2023-05-18T18:50:43.121Z,32.29
2023-05-18T18:55:46.042Z,32.33
2023-05-18T19:00:50.279Z,32.57
2023-05-18T19:05:53.159Z,32.54
2023-05-18T19:10:56.076Z,32.53
2023-05-18T19:16:00.403Z,32.63
2023-05-18T19:21:03.320Z,32.44
2023-05-18T19:26:06.238Z,32.53
2023-05-18T19:31:10.858Z,32.67
2023-05-18T19:36:13.807Z,32.65
2023-05-18T19:41:16.782Z,32.69
2023-05-18T19:46:21.110Z,32.57
2023-05-18T19:51:24.187Z,32.77
2023-05-18T19:56:27.134Z,32.69
2023-05-18T20:01:32.149Z,32.72
2023-05-18T20:06:35.207Z,32.69
2023-05-18T20:11:38.084Z,32.62
2023-05-18T20:16:42.355Z,32.84
2023-05-18T20:21:47.621Z,32.81
2023-05-18T20:26:50.856Z,32.75
2023-05-18T20:31:55.766Z,32.95
2023-05-18T20:36:58.974Z,32.72
2023-05-18T20:42:03.015Z,32.90
2023-05-18T20:47:08.562Z,32.77
2023-05-18T20:52:11.505Z,32.90
2023-05-18T20:57:14.549Z,32.87
2023-05-18T21:02:19.588Z,32.86
2023-05-18T21:07:23.646Z,32.94
2023-05-18T21:12:26.541Z,32.91
2023-05-18T21:17:32.412Z,32.94
2023-05-18T21:22:35.278Z,32.86
2023-05-18T21:27:38.271Z,33.04
2023-05-18T21:32:43.655Z,33.00
2023-05-18T21:37:46.715Z,32.98
2023-05-18T21:42:49.581Z,33.09
2023-05-18T21:47:53.785Z,33.03
2023-05-18T21:52:56.772Z,33.06
2023-05-18T21:57:59.784Z,32.95
2023-05-18T22:03:04.058Z,33.03
2023-05-18T22:08:06.972Z,33.02
2023-05-18T22:13:09.988Z,33.07
2023-05-18T22:18:14.217Z,33.02
2023-05-18T22:23:17.260Z,33.06
2023-05-18T22:28:21.625Z,33.17
2023-05-18T22:33:25.937Z,33.21
2023-05-18T22:38:28.848Z,33.11
2023-05-18T22:43:31.714Z,33.09
2023-05-18T22:48:36.054Z,33.26
2023-05-18T22:53:38.882Z,32.98
2023-05-18T22:58:41.739Z,33.20
2023-05-18T23:03:45.956Z,33.15
2023-05-18T23:08:49.029Z,33.15
2023-05-18T23:13:52.210Z,33.35
2023-05-18T23:18:58.721Z,33.33
2023-05-18T23:24:01.805Z,33.29
2023-05-18T23:29:04.741Z,33.37
2023-05-18T23:34:09.577Z,33.35
2023-05-18T23:39:12.981Z,33.25
2023-05-18T23:44:16.373Z,33.18
2023-05-18T23:49:21.224Z,33.22
2023-05-18T23:54:24.673Z,33.35
2023-05-18T23:59:28.222Z,33.39
